sensor_id;sensor_type;location;lat;lon;timestamp;temperature;humidity
72883;DHT22;61017;37.812;-122.286;2022-12-18T00:00:20;16.30;76.00
72883;DHT22;61017;37.812;-122.286;2022-12-18T00:02:10;16.30;76.00
72883;DHT22;61017;37.812;-122.286;2022-12-18T00:04:02;16.30;76.30
72883;DHT22;61017;37.812;-122.286;2022-12-18T00:05:52;16.30;76.30
72883;DHT22;61017;37.812;-122.286;2022-12-18T00:07:42;16.30;76.40
72883;DHT22;61017;37.812;-122.286;2022-12-18T00:09:32;16.30;76.60
72883;DHT22;61017;37.812;-122.286;2022-12-18T00:11:25;16.30;76.60
72883;DHT22;61017;37.812;-122.286;2022-12-18T00:13:15;16.30;76.70
72883;DHT22;61017;37.812;-122.286;2022-12-18T00:15:06;16.30;76.70
72883;DHT22;61017;37.812;-122.286;2022-12-18T00:16:56;16.30;76.80
72883;DHT22;61017;37.812;-122.286;2022-12-18T00:18:47;16.40;77.10
72883;DHT22;61017;37.812;-122.286;2022-12-18T00:20:38;16.40;77.20
72883;DHT22;61017;37.812;-122.286;2022-12-18T00:22:29;16.40;77.30
72883;DHT22;61017;37.812;-122.286;2022-12-18T00:24:22;16.40;77.30
72883;DHT22;61017;37.812;-122.286;2022-12-18T00:26:14;16.40;77.60
72883;DHT22;61017;37.812;-122.286;2022-12-18T00:28:04;16.40;77.50
72883;DHT22;61017;37.812;-122.286;2022-12-18T00:29:55;16.40;77.50
72883;DHT22;61017;37.812;-122.286;2022-12-18T00:31:45;16.40;77.60
72883;DHT22;61017;37.812;-122.286;2022-12-18T00:33:36;16.40;77.80
72883;DHT22;61017;37.812;-122.286;2022-12-18T00:35:26;16.40;78.90
72883;DHT22;61017;37.812;-122.286;2022-12-18T00:37:16;16.40;78.60
72883;DHT22;61017;37.812;-122.286;2022-12-18T00:39:07;16.40;78.90
72883;DHT22;61017;37.812;-122.286;2022-12-18T00:40:58;16.40;79.10
72883;DHT22;61017;37.812;-122.286;2022-12-18T00:42:48;16.40;79.10
72883;DHT22;61017;37.812;-122.286;2022-12-18T00:44:38;16.40;79.30
72883;DHT22;61017;37.812;-122.286;2022-12-18T00:46:28;16.40;79.50
72883;DHT22;61017;37.812;-122.286;2022-12-18T00:48:18;16.40;79.50
72883;DHT22;61017;37.812;-122.286;2022-12-18T00:50:09;16.50;79.80
72883;DHT22;61017;37.812;-122.286;2022-12-18T00:51:59;16.50;80.00
72883;DHT22;61017;37.812;-122.286;2022-12-18T00:53:49;16.50;80.00
72883;DHT22;61017;37.812;-122.286;2022-12-18T00:55:40;16.50;80.10
72883;DHT22;61017;37.812;-122.286;2022-12-18T00:57:30;16.50;80.10
72883;DHT22;61017;37.812;-122.286;2022-12-18T00:59:21;16.50;80.10
72883;DHT22;61017;37.812;-122.286;2022-12-18T01:01:11;16.50;80.00
72883;DHT22;61017;37.812;-122.286;2022-12-18T01:03:01;16.50;80.00
72883;DHT22;61017;37.812;-122.286;2022-12-18T01:04:51;16.50;80.10
72883;DHT22;61017;37.812;-122.286;2022-12-18T01:06:41;16.50;80.00
72883;DHT22;61017;37.812;-122.286;2022-12-18T01:08:32;16.50;80.10
72883;DHT22;61017;37.812;-122.286;2022-12-18T01:10:23;16.50;80.00
72883;DHT22;61017;37.812;-122.286;2022-12-18T01:12:13;16.50;80.00
72883;DHT22;61017;37.812;-122.286;2022-12-18T01:14:03;16.50;80.10
72883;DHT22;61017;37.812;-122.286;2022-12-18T01:15:54;16.60;80.20
72883;DHT22;61017;37.812;-122.286;2022-12-18T01:17:44;16.60;80.00
72883;DHT22;61017;37.812;-122.286;2022-12-18T01:19:34;16.60;80.00
72883;DHT22;61017;37.812;-122.286;2022-12-18T01:21:24;16.60;79.80
72883;DHT22;61017;37.812;-122.286;2022-12-18T01:23:14;16.60;79.70
72883;DHT22;61017;37.812;-122.286;2022-12-18T01:25:05;16.60;79.70
72883;DHT22;61017;37.812;-122.286;2022-12-18T01:26:55;16.60;79.60
72883;DHT22;61017;37.812;-122.286;2022-12-18T01:28:45;16.60;79.40
72883;DHT22;61017;37.812;-122.286;2022-12-18T01:30:36;16.60;79.40
72883;DHT22;61017;37.812;-122.286;2022-12-18T01:32:26;16.60;79.30
72883;DHT22;61017;37.812;-122.286;2022-12-18T01:34:16;16.60;79.30
72883;DHT22;61017;37.812;-122.286;2022-12-18T01:36:06;16.60;79.30
72883;DHT22;61017;37.812;-122.286;2022-12-18T01:38:15;16.60;79.10
72883;DHT22;61017;37.812;-122.286;2022-12-18T01:40:05;16.60;79.00
72883;DHT22;61017;37.812;-122.286;2022-12-18T01:41:55;16.60;79.10
72883;DHT22;61017;37.812;-122.286;2022-12-18T01:43:55;16.60;78.90
72883;DHT22;61017;37.812;-122.286;2022-12-18T01:45:45;16.60;78.80
72883;DHT22;61017;37.812;-122.286;2022-12-18T01:49:37;16.60;78.60
72883;DHT22;61017;37.812;-122.286;2022-12-18T01:51:28;16.60;78.50
72883;DHT22;61017;37.812;-122.286;2022-12-18T01:53:21;16.60;78.50
72883;DHT22;61017;37.812;-122.286;2022-12-18T01:55:13;16.60;78.40
72883;DHT22;61017;37.812;-122.286;2022-12-18T01:57:04;16.60;78.30
72883;DHT22;61017;37.812;-122.286;2022-12-18T01:59:08;16.60;78.10
72883;DHT22;61017;37.812;-122.286;2022-12-18T02:00:59;16.60;79.00
72883;DHT22;61017;37.812;-122.286;2022-12-18T02:02:49;16.60;78.10
72883;DHT22;61017;37.812;-122.286;2022-12-18T02:04:41;16.60;78.10
72883;DHT22;61017;37.812;-122.286;2022-12-18T02:06:38;16.60;78.00
72883;DHT22;61017;37.812;-122.286;2022-12-18T02:13:30;16.60;77.80
72883;DHT22;61017;37.812;-122.286;2022-12-18T02:15:12;16.60;77.80
72883;DHT22;61017;37.812;-122.286;2022-12-18T02:17:23;16.60;77.70
72883;DHT22;61017;37.812;-122.286;2022-12-18T02:19:43;16.60;77.60
72883;DHT22;61017;37.812;-122.286;2022-12-18T02:22:13;16.60;77.60
72883;DHT22;61017;37.812;-122.286;2022-12-18T02:24:28;16.60;77.40
72883;DHT22;61017;37.812;-122.286;2022-12-18T02:28:28;16.60;77.20
72883;DHT22;61017;37.812;-122.286;2022-12-18T02:30:20;16.60;77.10
72883;DHT22;61017;37.812;-122.286;2022-12-18T02:32:16;16.60;77.00
72883;DHT22;61017;37.812;-122.286;2022-12-18T02:34:08;16.60;77.70
72883;DHT22;61017;37.812;-122.286;2022-12-18T02:36:00;16.60;76.80
72883;DHT22;61017;37.812;-122.286;2022-12-18T02:37:52;16.60;76.70
72883;DHT22;61017;37.812;-122.286;2022-12-18T02:39:44;16.50;76.40
72883;DHT22;61017;37.812;-122.286;2022-12-18T02:41:36;16.60;76.40
72883;DHT22;61017;37.812;-122.286;2022-12-18T02:43:26;16.60;76.10
72883;DHT22;61017;37.812;-122.286;2022-12-18T02:45:16;16.60;76.10
72883;DHT22;61017;37.812;-122.286;2022-12-18T02:47:13;16.60;76.00
72883;DHT22;61017;37.812;-122.286;2022-12-18T02:51:29;16.60;75.70
72883;DHT22;61017;37.812;-122.286;2022-12-18T02:53:30;16.60;75.50
72883;DHT22;61017;37.812;-122.286;2022-12-18T02:57:44;16.60;75.30
72883;DHT22;61017;37.812;-122.286;2022-12-18T02:59:56;16.60;75.20
72883;DHT22;61017;37.812;-122.286;2022-12-18T03:01:58;16.60;75.10
72883;DHT22;61017;37.812;-122.286;2022-12-18T03:03:56;16.60;75.10
72883;DHT22;61017;37.812;-122.286;2022-12-18T03:06:00;16.60;75.10
72883;DHT22;61017;37.812;-122.286;2022-12-18T03:07:53;16.60;75.00
72883;DHT22;61017;37.812;-122.286;2022-12-18T03:09:50;16.60;75.00
72883;DHT22;61017;37.812;-122.286;2022-12-18T03:11:44;16.60;75.00
72883;DHT22;61017;37.812;-122.286;2022-12-18T03:13:44;16.50;74.80
72883;DHT22;61017;37.812;-122.286;2022-12-18T03:15:44;16.60;74.90
72883;DHT22;61017;37.812;-122.286;2022-12-18T03:17:35;16.60;74.70
72883;DHT22;61017;37.812;-122.286;2022-12-18T03:19:28;16.50;74.60
72883;DHT22;61017;37.812;-122.286;2022-12-18T03:21:23;16.50;74.60
72883;DHT22;61017;37.812;-122.286;2022-12-18T03:23:22;16.50;74.60
72883;DHT22;61017;37.812;-122.286;2022-12-18T03:25:15;16.50;74.60
72883;DHT22;61017;37.812;-122.286;2022-12-18T03:27:18;16.50;74.50
72883;DHT22;61017;37.812;-122.286;2022-12-18T03:29:17;16.50;74.40
72883;DHT22;61017;37.812;-122.286;2022-12-18T03:31:10;16.50;74.20
72883;DHT22;61017;37.812;-122.286;2022-12-18T03:33:21;16.50;74.00
72883;DHT22;61017;37.812;-122.286;2022-12-18T03:35:17;16.50;74.00
72883;DHT22;61017;37.812;-122.286;2022-12-18T03:37:08;16.60;74.30
72883;DHT22;61017;37.812;-122.286;2022-12-18T03:38:59;16.60;74.30
72883;DHT22;61017;37.812;-122.286;2022-12-18T03:43:11;16.60;74.30
72883;DHT22;61017;37.812;-122.286;2022-12-18T03:47:13;16.60;74.30
72883;DHT22;61017;37.812;-122.286;2022-12-18T03:49:30;16.60;74.30
72883;DHT22;61017;37.812;-122.286;2022-12-18T03:53:31;16.60;74.40
72883;DHT22;61017;37.812;-122.286;2022-12-18T03:55:23;16.60;74.40
72883;DHT22;61017;37.812;-122.286;2022-12-18T03:57:23;16.60;74.40
72883;DHT22;61017;37.812;-122.286;2022-12-18T03:59:16;16.60;74.50
72883;DHT22;61017;37.812;-122.286;2022-12-18T04:01:08;16.50;74.30
72883;DHT22;61017;37.812;-122.286;2022-12-18T04:03:01;16.50;74.30
72883;DHT22;61017;37.812;-122.286;2022-12-18T04:04:55;16.50;74.30
72883;DHT22;61017;37.812;-122.286;2022-12-18T04:06:48;16.50;74.40
72883;DHT22;61017;37.812;-122.286;2022-12-18T04:08:39;16.50;74.50
72883;DHT22;61017;37.812;-122.286;2022-12-18T04:10:30;16.50;74.30
72883;DHT22;61017;37.812;-122.286;2022-12-18T04:12:20;16.50;74.10
72883;DHT22;61017;37.812;-122.286;2022-12-18T04:14:11;16.60;74.10
72883;DHT22;61017;37.812;-122.286;2022-12-18T04:16:01;16.60;74.10
72883;DHT22;61017;37.812;-122.286;2022-12-18T04:17:51;16.60;73.90
72883;DHT22;61017;37.812;-122.286;2022-12-18T04:19:41;16.60;74.10
72883;DHT22;61017;37.812;-122.286;2022-12-18T04:21:31;16.60;73.60
72883;DHT22;61017;37.812;-122.286;2022-12-18T04:23:21;16.60;73.60
72883;DHT22;61017;37.812;-122.286;2022-12-18T04:25:12;16.60;73.50
72883;DHT22;61017;37.812;-122.286;2022-12-18T04:27:02;16.60;73.40
72883;DHT22;61017;37.812;-122.286;2022-12-18T04:28:52;16.60;73.40
72883;DHT22;61017;37.812;-122.286;2022-12-18T04:30:42;16.60;73.40
72883;DHT22;61017;37.812;-122.286;2022-12-18T04:32:34;16.60;73.30
72883;DHT22;61017;37.812;-122.286;2022-12-18T04:34:24;16.60;73.60
72883;DHT22;61017;37.812;-122.286;2022-12-18T04:36:14;16.60;73.50
72883;DHT22;61017;37.812;-122.286;2022-12-18T04:38:06;16.60;73.80
72883;DHT22;61017;37.812;-122.286;2022-12-18T04:39:56;16.60;74.10
72883;DHT22;61017;37.812;-122.286;2022-12-18T04:41:46;16.60;74.40
72883;DHT22;61017;37.812;-122.286;2022-12-18T04:43:36;16.60;74.70
72883;DHT22;61017;37.812;-122.286;2022-12-18T04:45:26;16.60;75.00
72883;DHT22;61017;37.812;-122.286;2022-12-18T04:47:16;16.60;74.50
72883;DHT22;61017;37.812;-122.286;2022-12-18T04:49:06;16.60;74.50
72883;DHT22;61017;37.812;-122.286;2022-12-18T04:50:57;16.60;74.20
72883;DHT22;61017;37.812;-122.286;2022-12-18T04:52:47;16.60;74.20
72883;DHT22;61017;37.812;-122.286;2022-12-18T04:54:37;16.70;74.10
72883;DHT22;61017;37.812;-122.286;2022-12-18T04:56:27;16.70;74.00
72883;DHT22;61017;37.812;-122.286;2022-12-18T04:58:17;16.80;73.50
72883;DHT22;61017;37.812;-122.286;2022-12-18T05:00:07;16.70;73.10
72883;DHT22;61017;37.812;-122.286;2022-12-18T05:01:57;16.70;73.10
72883;DHT22;61017;37.812;-122.286;2022-12-18T05:03:47;16.70;73.60
72883;DHT22;61017;37.812;-122.286;2022-12-18T05:05:37;16.70;73.60
72883;DHT22;61017;37.812;-122.286;2022-12-18T05:07:27;16.80;73.90
72883;DHT22;61017;37.812;-122.286;2022-12-18T05:09:17;16.70;73.60
72883;DHT22;61017;37.812;-122.286;2022-12-18T05:11:10;16.70;74.10
72883;DHT22;61017;37.812;-122.286;2022-12-18T05:13:01;16.80;74.50
72883;DHT22;61017;37.812;-122.286;2022-12-18T05:14:51;16.80;74.30
72883;DHT22;61017;37.812;-122.286;2022-12-18T05:16:41;16.80;74.00
72883;DHT22;61017;37.812;-122.286;2022-12-18T05:18:32;16.80;74.50
72883;DHT22;61017;37.812;-122.286;2022-12-18T05:20:22;16.80;74.40
72883;DHT22;61017;37.812;-122.286;2022-12-18T05:22:12;16.80;74.90
72883;DHT22;61017;37.812;-122.286;2022-12-18T05:24:02;16.80;75.40
72883;DHT22;61017;37.812;-122.286;2022-12-18T05:25:54;16.80;75.40
72883;DHT22;61017;37.812;-122.286;2022-12-18T05:27:45;16.80;75.50
72883;DHT22;61017;37.812;-122.286;2022-12-18T05:29:35;16.80;75.60
72883;DHT22;61017;37.812;-122.286;2022-12-18T05:31:25;16.80;75.90
72883;DHT22;61017;37.812;-122.286;2022-12-18T05:33:15;16.80;76.00
72883;DHT22;61017;37.812;-122.286;2022-12-18T05:35:06;16.70;75.80
72883;DHT22;61017;37.812;-122.286;2022-12-18T05:36:57;16.70;76.00
72883;DHT22;61017;37.812;-122.286;2022-12-18T05:38:47;16.70;76.00
72883;DHT22;61017;37.812;-122.286;2022-12-18T05:40:40;16.70;75.80
72883;DHT22;61017;37.812;-122.286;2022-12-18T05:42:31;16.70;76.40
72883;DHT22;61017;37.812;-122.286;2022-12-18T05:44:21;16.70;75.70
72883;DHT22;61017;37.812;-122.286;2022-12-18T05:46:16;16.70;76.60
72883;DHT22;61017;37.812;-122.286;2022-12-18T05:48:07;16.70;76.30
72883;DHT22;61017;37.812;-122.286;2022-12-18T05:49:57;16.80;75.80
72883;DHT22;61017;37.812;-122.286;2022-12-18T05:51:47;16.80;74.80
72883;DHT22;61017;37.812;-122.286;2022-12-18T05:53:38;16.80;74.40
72883;DHT22;61017;37.812;-122.286;2022-12-18T05:55:28;16.90;74.80
72883;DHT22;61017;37.812;-122.286;2022-12-18T05:57:18;16.90;74.10
72883;DHT22;61017;37.812;-122.286;2022-12-18T05:59:09;16.80;74.40
72883;DHT22;61017;37.812;-122.286;2022-12-18T06:01:24;16.80;74.40
72883;DHT22;61017;37.812;-122.286;2022-12-18T06:03:15;16.80;74.70
72883;DHT22;61017;37.812;-122.286;2022-12-18T06:05:05;16.80;74.20
72883;DHT22;61017;37.812;-122.286;2022-12-18T06:06:55;16.80;75.10
72883;DHT22;61017;37.812;-122.286;2022-12-18T06:08:46;16.80;74.80
72883;DHT22;61017;37.812;-122.286;2022-12-18T06:10:37;16.50;74.70
72883;DHT22;61017;37.812;-122.286;2022-12-18T06:12:27;16.40;75.80
72883;DHT22;61017;37.812;-122.286;2022-12-18T06:16:08;16.10;75.60
72883;DHT22;61017;37.812;-122.286;2022-12-18T06:17:58;16.10;76.40
72883;DHT22;61017;37.812;-122.286;2022-12-18T06:19:48;16.10;76.50
72883;DHT22;61017;37.812;-122.286;2022-12-18T06:32:40;16.20;75.90
72883;DHT22;61017;37.812;-122.286;2022-12-18T06:34:30;16.10;76.40
72883;DHT22;61017;37.812;-122.286;2022-12-18T06:36:20;16.10;76.10
72883;DHT22;61017;37.812;-122.286;2022-12-18T06:38:10;16.00;76.00
72883;DHT22;61017;37.812;-122.286;2022-12-18T06:40:00;16.00;75.80
72883;DHT22;61017;37.812;-122.286;2022-12-18T06:41:50;16.00;75.60
72883;DHT22;61017;37.812;-122.286;2022-12-18T06:43:41;16.00;75.20
72883;DHT22;61017;37.812;-122.286;2022-12-18T06:45:31;16.00;75.10
72883;DHT22;61017;37.812;-122.286;2022-12-18T06:47:22;16.00;75.00
72883;DHT22;61017;37.812;-122.286;2022-12-18T06:49:12;16.00;75.00
72883;DHT22;61017;37.812;-122.286;2022-12-18T06:51:03;16.00;75.00
72883;DHT22;61017;37.812;-122.286;2022-12-18T06:52:53;16.00;74.90
72883;DHT22;61017;37.812;-122.286;2022-12-18T06:54:43;16.00;74.80
72883;DHT22;61017;37.812;-122.286;2022-12-18T06:56:33;16.00;74.80
72883;DHT22;61017;37.812;-122.286;2022-12-18T06:58:23;16.00;74.80
72883;DHT22;61017;37.812;-122.286;2022-12-18T07:00:13;16.00;74.80
72883;DHT22;61017;37.812;-122.286;2022-12-18T07:02:03;15.90;74.60
72883;DHT22;61017;37.812;-122.286;2022-12-18T07:03:55;15.90;74.80
72883;DHT22;61017;37.812;-122.286;2022-12-18T07:05:45;15.90;74.80
72883;DHT22;61017;37.812;-122.286;2022-12-18T07:07:35;15.90;74.80
72883;DHT22;61017;37.812;-122.286;2022-12-18T07:09:26;15.90;74.80
72883;DHT22;61017;37.812;-122.286;2022-12-18T07:11:17;15.90;74.80
72883;DHT22;61017;37.812;-122.286;2022-12-18T07:13:07;15.90;74.70
72883;DHT22;61017;37.812;-122.286;2022-12-18T07:14:57;15.90;74.60
72883;DHT22;61017;37.812;-122.286;2022-12-18T07:16:47;15.90;74.50
72883;DHT22;61017;37.812;-122.286;2022-12-18T07:18:37;15.90;74.50
72883;DHT22;61017;37.812;-122.286;2022-12-18T07:20:27;15.90;74.50
72883;DHT22;61017;37.812;-122.286;2022-12-18T07:22:17;16.00;74.50
72883;DHT22;61017;37.812;-122.286;2022-12-18T07:24:07;16.00;74.40
72883;DHT22;61017;37.812;-122.286;2022-12-18T07:26:01;16.00;74.30
72883;DHT22;61017;37.812;-122.286;2022-12-18T07:27:51;16.00;75.10
72883;DHT22;61017;37.812;-122.286;2022-12-18T07:29:41;16.00;74.30
72883;DHT22;61017;37.812;-122.286;2022-12-18T07:31:31;16.00;74.20
72883;DHT22;61017;37.812;-122.286;2022-12-18T07:33:21;16.00;74.20
72883;DHT22;61017;37.812;-122.286;2022-12-18T07:35:11;15.90;74.20
72883;DHT22;61017;37.812;-122.286;2022-12-18T07:37:01;15.90;74.20
72883;DHT22;61017;37.812;-122.286;2022-12-18T07:38:52;15.90;74.20
72883;DHT22;61017;37.812;-122.286;2022-12-18T07:40:42;15.90;74.30
72883;DHT22;61017;37.812;-122.286;2022-12-18T07:42:32;15.90;74.30
72883;DHT22;61017;37.812;-122.286;2022-12-18T07:44:22;15.90;74.30
72883;DHT22;61017;37.812;-122.286;2022-12-18T07:46:13;15.90;74.30
72883;DHT22;61017;37.812;-122.286;2022-12-18T07:48:03;15.90;74.30
72883;DHT22;61017;37.812;-122.286;2022-12-18T07:49:54;15.90;74.30
72883;DHT22;61017;37.812;-122.286;2022-12-18T07:51:44;15.90;74.30
72883;DHT22;61017;37.812;-122.286;2022-12-18T07:53:35;15.90;74.40
72883;DHT22;61017;37.812;-122.286;2022-12-18T07:55:25;15.80;74.30
72883;DHT22;61017;37.812;-122.286;2022-12-18T07:57:16;15.80;74.50
72883;DHT22;61017;37.812;-122.286;2022-12-18T07:59:06;15.90;74.60
72883;DHT22;61017;37.812;-122.286;2022-12-18T08:01:22;15.90;74.60
72883;DHT22;61017;37.812;-122.286;2022-12-18T08:03:13;15.80;75.30
72883;DHT22;61017;37.812;-122.286;2022-12-18T08:05:04;15.80;74.50
72883;DHT22;61017;37.812;-122.286;2022-12-18T08:06:54;15.80;74.50
72883;DHT22;61017;37.812;-122.286;2022-12-18T08:08:44;15.80;74.40
72883;DHT22;61017;37.812;-122.286;2022-12-18T08:10:34;15.80;74.40
72883;DHT22;61017;37.812;-122.286;2022-12-18T08:12:24;15.80;74.40
72883;DHT22;61017;37.812;-122.286;2022-12-18T08:14:14;15.80;74.40
72883;DHT22;61017;37.812;-122.286;2022-12-18T08:16:06;15.80;74.30
72883;DHT22;61017;37.812;-122.286;2022-12-18T08:17:57;15.80;74.40
72883;DHT22;61017;37.812;-122.286;2022-12-18T08:19:47;15.80;75.20
72883;DHT22;61017;37.812;-122.286;2022-12-18T08:21:37;15.80;74.40
72883;DHT22;61017;37.812;-122.286;2022-12-18T08:23:27;15.80;74.30
72883;DHT22;61017;37.812;-122.286;2022-12-18T08:25:17;15.80;74.20
72883;DHT22;61017;37.812;-122.286;2022-12-18T08:27:07;15.80;74.10
72883;DHT22;61017;37.812;-122.286;2022-12-18T08:28:58;15.80;74.10
72883;DHT22;61017;37.812;-122.286;2022-12-18T08:30:52;15.80;74.10
72883;DHT22;61017;37.812;-122.286;2022-12-18T08:32:42;15.80;74.00
72883;DHT22;61017;37.812;-122.286;2022-12-18T08:34:32;15.70;73.90
72883;DHT22;61017;37.812;-122.286;2022-12-18T08:36:23;15.70;73.90
72883;DHT22;61017;37.812;-122.286;2022-12-18T08:38:14;15.70;73.90
72883;DHT22;61017;37.812;-122.286;2022-12-18T08:40:05;15.80;74.50
72883;DHT22;61017;37.812;-122.286;2022-12-18T08:41:55;15.80;75.50
72883;DHT22;61017;37.812;-122.286;2022-12-18T08:43:45;15.90;75.90
72883;DHT22;61017;37.812;-122.286;2022-12-18T08:45:36;15.90;76.30
72883;DHT22;61017;37.812;-122.286;2022-12-18T08:47:26;15.90;76.30
72883;DHT22;61017;37.812;-122.286;2022-12-18T08:49:16;15.80;76.10
72883;DHT22;61017;37.812;-122.286;2022-12-18T08:51:06;15.80;75.90
72883;DHT22;61017;37.812;-122.286;2022-12-18T08:52:56;15.80;75.50
72883;DHT22;61017;37.812;-122.286;2022-12-18T08:54:46;15.80;75.40
72883;DHT22;61017;37.812;-122.286;2022-12-18T08:56:36;15.80;75.20
72883;DHT22;61017;37.812;-122.286;2022-12-18T08:58:26;15.80;75.00
72883;DHT22;61017;37.812;-122.286;2022-12-18T09:00:17;15.80;74.90
72883;DHT22;61017;37.812;-122.286;2022-12-18T09:02:10;15.80;74.70
72883;DHT22;61017;37.812;-122.286;2022-12-18T09:04:00;15.80;74.60
72883;DHT22;61017;37.812;-122.286;2022-12-18T09:05:50;15.80;74.70
72883;DHT22;61017;37.812;-122.286;2022-12-18T09:08:00;15.80;74.60
72883;DHT22;61017;37.812;-122.286;2022-12-18T09:09:50;15.70;74.50
72883;DHT22;61017;37.812;-122.286;2022-12-18T09:11:41;15.70;74.40
72883;DHT22;61017;37.812;-122.286;2022-12-18T09:13:31;15.70;74.60
72883;DHT22;61017;37.812;-122.286;2022-12-18T09:15:21;15.70;75.80
72883;DHT22;61017;37.812;-122.286;2022-12-18T09:17:11;15.80;77.20
72883;DHT22;61017;37.812;-122.286;2022-12-18T09:19:03;15.70;77.50
72883;DHT22;61017;37.812;-122.286;2022-12-18T09:20:53;15.80;77.30
72883;DHT22;61017;37.812;-122.286;2022-12-18T09:22:43;15.80;77.10
72883;DHT22;61017;37.812;-122.286;2022-12-18T09:24:34;15.80;76.90
72883;DHT22;61017;37.812;-122.286;2022-12-18T09:26:25;15.80;77.10
72883;DHT22;61017;37.812;-122.286;2022-12-18T09:28:17;15.70;77.00
72883;DHT22;61017;37.812;-122.286;2022-12-18T09:30:08;15.70;77.00
72883;DHT22;61017;37.812;-122.286;2022-12-18T09:31:58;15.70;77.00
72883;DHT22;61017;37.812;-122.286;2022-12-18T09:33:48;15.70;77.10
72883;DHT22;61017;37.812;-122.286;2022-12-18T09:35:41;15.70;77.10
72883;DHT22;61017;37.812;-122.286;2022-12-18T09:37:32;15.70;77.10
72883;DHT22;61017;37.812;-122.286;2022-12-18T09:39:22;15.70;77.20
72883;DHT22;61017;37.812;-122.286;2022-12-18T09:43:57;15.60;77.00
72883;DHT22;61017;37.812;-122.286;2022-12-18T09:45:52;15.60;76.60
72883;DHT22;61017;37.812;-122.286;2022-12-18T09:47:43;15.60;76.40
72883;DHT22;61017;37.812;-122.286;2022-12-18T09:49:38;15.70;76.30
72883;DHT22;61017;37.812;-122.286;2022-12-18T09:51:37;15.70;76.00
72883;DHT22;61017;37.812;-122.286;2022-12-18T09:53:34;15.70;75.90
72883;DHT22;61017;37.812;-122.286;2022-12-18T09:55:44;15.70;75.70
72883;DHT22;61017;37.812;-122.286;2022-12-18T09:57:39;15.60;75.60
72883;DHT22;61017;37.812;-122.286;2022-12-18T09:59:38;15.60;75.70
72883;DHT22;61017;37.812;-122.286;2022-12-18T10:01:30;15.60;75.70
72883;DHT22;61017;37.812;-122.286;2022-12-18T10:03:21;15.60;75.70
72883;DHT22;61017;37.812;-122.286;2022-12-18T10:05:18;15.60;75.60
72883;DHT22;61017;37.812;-122.286;2022-12-18T10:07:20;15.60;75.70
72883;DHT22;61017;37.812;-122.286;2022-12-18T10:09:45;15.60;75.60
72883;DHT22;61017;37.812;-122.286;2022-12-18T10:12:01;15.60;75.40
72883;DHT22;61017;37.812;-122.286;2022-12-18T10:14:19;15.60;75.10
72883;DHT22;61017;37.812;-122.286;2022-12-18T10:27:18;15.50;74.50
72883;DHT22;61017;37.812;-122.286;2022-12-18T10:29:12;15.50;74.40
72883;DHT22;61017;37.812;-122.286;2022-12-18T10:31:06;15.50;74.40
72883;DHT22;61017;37.812;-122.286;2022-12-18T10:33:01;15.50;74.40
72883;DHT22;61017;37.812;-122.286;2022-12-18T10:34:54;15.50;74.40
72883;DHT22;61017;37.812;-122.286;2022-12-18T10:36:45;15.50;74.50
72883;DHT22;61017;37.812;-122.286;2022-12-18T10:38:36;15.50;74.40
72883;DHT22;61017;37.812;-122.286;2022-12-18T10:40:27;15.50;74.30
72883;DHT22;61017;37.812;-122.286;2022-12-18T10:42:19;15.50;74.20
72883;DHT22;61017;37.812;-122.286;2022-12-18T10:47:58;15.50;74.00
72883;DHT22;61017;37.812;-122.286;2022-12-18T10:49:50;15.50;73.90
72883;DHT22;61017;37.812;-122.286;2022-12-18T10:51:41;15.50;73.90
72883;DHT22;61017;37.812;-122.286;2022-12-18T10:53:34;15.50;73.90
72883;DHT22;61017;37.812;-122.286;2022-12-18T10:55:35;15.50;73.80
72883;DHT22;61017;37.812;-122.286;2022-12-18T10:57:37;15.40;74.40
72883;DHT22;61017;37.812;-122.286;2022-12-18T10:59:27;15.40;73.60
72883;DHT22;61017;37.812;-122.286;2022-12-18T11:01:18;15.40;73.50
72883;DHT22;61017;37.812;-122.286;2022-12-18T11:03:31;15.40;73.60
72883;DHT22;61017;37.812;-122.286;2022-12-18T11:05:33;15.40;73.50
72883;DHT22;61017;37.812;-122.286;2022-12-18T11:07:23;15.40;73.50
72883;DHT22;61017;37.812;-122.286;2022-12-18T11:09:24;15.40;74.20
72883;DHT22;61017;37.812;-122.286;2022-12-18T11:11:21;15.40;73.30
72883;DHT22;61017;37.812;-122.286;2022-12-18T11:13:26;15.40;73.20
72883;DHT22;61017;37.812;-122.286;2022-12-18T11:15:28;15.40;73.40
72883;DHT22;61017;37.812;-122.286;2022-12-18T11:19:30;15.40;73.20
72883;DHT22;61017;37.812;-122.286;2022-12-18T11:21:21;15.40;73.20
72883;DHT22;61017;37.812;-122.286;2022-12-18T11:23:13;15.40;73.10
72883;DHT22;61017;37.812;-122.286;2022-12-18T11:27:05;15.30;73.00
72883;DHT22;61017;37.812;-122.286;2022-12-18T11:29:10;15.30;73.00
72883;DHT22;61017;37.812;-122.286;2022-12-18T11:31:11;15.30;73.00
72883;DHT22;61017;37.812;-122.286;2022-12-18T11:35:17;15.30;72.90
72883;DHT22;61017;37.812;-122.286;2022-12-18T11:37:09;15.30;72.70
72883;DHT22;61017;37.812;-122.286;2022-12-18T11:39:04;15.30;72.70
72883;DHT22;61017;37.812;-122.286;2022-12-18T11:41:01;15.40;72.50
72883;DHT22;61017;37.812;-122.286;2022-12-18T11:43:06;15.40;72.20
72883;DHT22;61017;37.812;-122.286;2022-12-18T11:47:34;15.30;71.80
72883;DHT22;61017;37.812;-122.286;2022-12-18T11:49:38;15.40;71.70
72883;DHT22;61017;37.812;-122.286;2022-12-18T11:51:38;15.40;71.80
72883;DHT22;61017;37.812;-122.286;2022-12-18T11:53:32;15.30;71.90
72883;DHT22;61017;37.812;-122.286;2022-12-18T12:01:51;15.30;72.10
72883;DHT22;61017;37.812;-122.286;2022-12-18T12:06:03;15.30;72.40
72883;DHT22;61017;37.812;-122.286;2022-12-18T12:08:30;15.30;72.40
72883;DHT22;61017;37.812;-122.286;2022-12-18T12:12:36;15.30;72.20
72883;DHT22;61017;37.812;-122.286;2022-12-18T12:14:41;15.30;72.10
72883;DHT22;61017;37.812;-122.286;2022-12-18T12:20:46;15.30;72.00
72883;DHT22;61017;37.812;-122.286;2022-12-18T12:23:06;15.30;71.90
72883;DHT22;61017;37.812;-122.286;2022-12-18T12:25:19;15.30;71.80
72883;DHT22;61017;37.812;-122.286;2022-12-18T12:33:26;15.30;71.90
72883;DHT22;61017;37.812;-122.286;2022-12-18T12:38:08;15.30;71.70
72883;DHT22;61017;37.812;-122.286;2022-12-18T12:40:02;15.30;71.60
72883;DHT22;61017;37.812;-122.286;2022-12-18T12:41:53;15.30;71.60
72883;DHT22;61017;37.812;-122.286;2022-12-18T12:43:46;15.30;71.60
72883;DHT22;61017;37.812;-122.286;2022-12-18T12:46:05;15.30;71.40